createdAt,value
2019-03-22T00:00:48.347Z,99933.59
2019-03-22T00:05:54.144Z,99929.86
2019-03-22T00:11:00.877Z,99922.64
2019-03-22T00:16:08.741Z,99918.36
2019-03-22T00:21:14.606Z,99909.66
2019-03-22T00:26:20.436Z,99906.67
2019-03-22T00:31:26.108Z,99900.72
2019-03-22T00:36:31.866Z,99897.13
2019-03-22T00:41:37.924Z,99891.53
2019-03-22T00:46:43.599Z,99889.18
2019-03-22T00:51:50.326Z,99887.11
2019-03-22T00:56:56.287Z,99885.80
2019-03-22T01:02:02.779Z,99885.41
2019-03-22T01:07:08.810Z,99884.36
2019-03-22T01:12:14.480Z,99880.33
2019-03-22T01:17:20.530Z,99880.53
2019-03-22T01:22:26.212Z,99870.95
2019-03-22T01:27:40.445Z,99872.06
2019-03-22T01:32:39.711Z,99875.20
2019-03-22T01:37:45.389Z,99872.00
2019-03-22T01:42:51.196Z,99873.27
2019-03-22T01:47:57.316Z,99874.22
2019-03-22T01:53:03.172Z,99867.39
2019-03-22T01:58:09.247Z,99867.55
2019-03-22T02:03:15.077Z,99869.77
2019-03-22T02:08:21.862Z,99862.55
2019-03-22T02:13:27.921Z,99860.51
2019-03-22T02:18:33.593Z,99856.36
2019-03-22T02:23:40.046Z,99863.24
2019-03-22T02:28:45.731Z,99860.77
2019-03-22T02:33:51.495Z,99854.47
2019-03-22T02:38:58.404Z,99864.35
2019-03-22T02:44:04.626Z,99869.67
2019-03-22T02:49:11.355Z,99865.62
2019-03-22T02:54:17.077Z,99873.19
2019-03-22T02:59:22.687Z,99868.05
2019-03-22T03:04:29.820Z,99869.19
2019-03-22T03:09:35.800Z,99872.39
2019-03-22T03:14:41.483Z,99873.08
2019-03-22T03:19:47.078Z,99864.45
2019-03-22T03:24:52.823Z,99864.92
2019-03-22T03:29:58.849Z,99871.09
2019-03-22T03:35:05.109Z,99863.88
2019-03-22T03:40:13.344Z,99865.70
2019-03-22T03:45:34.370Z,99861.46
2019-03-22T03:50:40.540Z,99871.59
2019-03-22T03:55:46.334Z,99867.30
2019-03-22T04:00:52.401Z,99865.20
2019-03-22T04:05:58.445Z,99865.98
2019-03-22T04:11:05.094Z,99865.52
2019-03-22T04:16:12.518Z,99851.45
2019-03-22T04:21:18.225Z,99857.27
2019-03-22T04:26:24.050Z,99863.23
2019-03-22T04:31:30.181Z,99868.38
2019-03-22T04:36:36.066Z,99866.09
2019-03-22T04:41:41.810Z,99881.31
2019-03-22T04:46:48.544Z,99876.18
2019-03-22T04:51:56.043Z,99876.69
2019-03-22T04:57:04.023Z,99877.49
2019-03-22T05:02:11.141Z,99883.53
2019-03-22T05:07:19.433Z,99881.89
2019-03-22T05:12:26.142Z,99889.28
2019-03-22T05:17:33.212Z,99887.61
2019-03-22T05:22:40.274Z,99888.23
2019-03-22T05:27:47.835Z,99892.53
2019-03-22T05:32:53.617Z,99900.66
2019-03-22T05:37:59.419Z,99894.77
2019-03-22T05:43:05.159Z,99893.99
2019-03-22T05:48:10.951Z,99894.91
2019-03-22T05:53:16.994Z,99904.37
2019-03-22T05:58:22.908Z,99911.59
2019-03-22T06:03:29.066Z,99908.62
2019-03-22T06:08:35.322Z,99930.39
2019-03-22T06:13:41.106Z,99921.97
2019-03-22T06:18:47.293Z,99914.94
2019-03-22T06:23:53.483Z,99913.45
2019-03-22T06:28:59.317Z,99914.35
2019-03-22T06:34:06.121Z,99918.91
2019-03-22T06:39:12.282Z,99927.70
2019-03-22T06:44:18.688Z,99925.61
2019-03-22T06:49:24.483Z,99922.78
2019-03-22T06:54:31.894Z,99910.64
2019-03-22T06:59:38.447Z,99919.47
2019-03-22T07:04:44.344Z,99921.89
2019-03-22T07:09:50.503Z,99929.33
2019-03-22T07:14:56.406Z,99933.85
2019-03-22T07:20:02.154Z,99934.70
2019-03-22T07:25:08.507Z,99926.16
2019-03-22T07:30:18.939Z,99928.48
2019-03-22T07:35:23.732Z,99934.66
2019-03-22T07:40:29.635Z,99933.42
2019-03-22T07:45:35.865Z,99933.98
2019-03-22T07:50:42.864Z,99935.52
2019-03-22T07:55:48.805Z,99931.92
2019-03-22T08:00:55.171Z,99928.59
2019-03-22T08:06:01.139Z,99932.06
2019-03-22T08:11:07.396Z,99920.53
2019-03-22T08:16:13.307Z,99930.20
2019-03-22T08:21:19.161Z,99919.56
2019-03-22T08:26:24.996Z,99920.76
2019-03-22T08:31:31.164Z,99915.95
2019-03-22T08:36:36.976Z,99909.31
2019-03-22T08:41:44.346Z,99910.80
2019-03-22T08:46:50.341Z,99916.55
2019-03-22T08:51:57.666Z,99912.89
2019-03-22T08:57:03.543Z,99913.48
2019-03-22T09:02:09.386Z,99909.12
2019-03-22T09:07:15.203Z,99898.70
2019-03-22T09:12:21.022Z,99901.70
2019-03-22T09:17:26.937Z,99892.02
2019-03-22T09:22:33.283Z,99899.03
2019-03-22T09:27:39.286Z,99890.91
2019-03-22T09:32:46.248Z,99889.73
2019-03-22T09:37:52.204Z,99882.79
2019-03-22T09:42:58.123Z,99878.42
2019-03-22T09:48:06.119Z,99870.58
2019-03-22T09:53:11.940Z,99866.70
2019-03-22T09:58:17.718Z,99858.09
2019-03-22T10:03:24.002Z,99853.45
2019-03-22T10:08:29.776Z,99850.48
2019-03-22T10:13:35.799Z,99843.02
2019-03-22T10:18:42.720Z,99841.02
2019-03-22T10:23:48.538Z,99834.05
2019-03-22T10:28:55.460Z,99839.73
2019-03-22T10:34:01.402Z,99830.02
2019-03-22T10:39:09.613Z,99831.08
2019-03-22T10:44:15.838Z,99838.30
2019-03-22T10:49:21.992Z,99821.80
2019-03-22T10:54:27.917Z,99816.13
2019-03-22T10:59:33.775Z,99815.08
2019-03-22T11:04:41.200Z,99808.50
2019-03-22T11:09:47.497Z,99799.98
2019-03-22T11:14:53.773Z,99793.79
2019-03-22T11:19:59.630Z,99783.77
2019-03-22T11:25:07.633Z,99787.17
2019-03-22T11:30:15.968Z,99784.82
2019-03-22T11:35:22.070Z,99770.74
2019-03-22T11:40:27.982Z,99766.41
2019-03-22T11:45:34.207Z,99753.36
2019-03-22T11:50:40.536Z,99748.64
2019-03-22T11:55:46.383Z,99755.97
2019-03-22T12:00:52.200Z,99748.63
2019-03-22T12:05:58.039Z,99741.09
2019-03-22T12:11:03.842Z,99736.95
2019-03-22T12:16:09.809Z,99740.03
2019-03-22T12:21:15.613Z,99721.05
2019-03-22T12:26:21.419Z,99726.64
2019-03-22T12:31:29.016Z,99723.70
2019-03-22T12:36:36.978Z,99709.57
2019-03-22T12:41:42.785Z,99706.23
2019-03-22T12:46:49.314Z,99697.22
2019-03-22T12:51:55.215Z,99692.19
2019-03-22T12:57:01.579Z,99689.69
2019-03-22T13:02:08.415Z,99679.05
2019-03-22T13:07:15.341Z,99673.27
2019-03-22T13:12:21.340Z,99665.63
2019-03-22T13:17:27.175Z,99662.16
2019-03-22T13:22:34.087Z,99645.05
2019-03-22T13:27:39.906Z,99636.28
2019-03-22T13:32:52.179Z,99635.91
2019-03-22T13:37:53.768Z,99616.62
2019-03-22T13:43:00.488Z,99621.02
2019-03-22T13:48:07.794Z,99615.47
2019-03-22T13:53:13.969Z,99605.36
2019-03-22T13:58:19.791Z,99593.58
2019-03-22T14:03:26.364Z,99593.14
2019-03-22T14:08:32.523Z,99585.68
2019-03-22T14:13:39.775Z,99578.20
2019-03-22T14:18:45.937Z,99580.58
2019-03-22T14:23:51.742Z,99569.34
2019-03-22T14:28:58.579Z,99566.87
2019-03-22T14:34:04.668Z,99556.50
2019-03-22T14:39:10.546Z,99554.20
2019-03-22T14:44:24.975Z,99556.31
2019-03-22T14:49:24.183Z,99544.48
2019-03-22T14:54:29.986Z,99535.20
2019-03-22T14:59:35.874Z,99537.78
2019-03-22T15:04:41.713Z,99524.67
2019-03-22T15:09:47.813Z,99520.87
2019-03-22T15:15:03.349Z,99514.03
2019-03-22T15:20:25.151Z,99510.30
2019-03-22T15:25:59.764Z,99498.17
2019-03-22T15:31:23.524Z,99489.97
2019-03-22T15:36:51.755Z,99487.45
2019-03-22T15:41:57.840Z,99485.63
2019-03-22T15:47:03.660Z,99472.84
2019-03-22T15:52:09.460Z,99482.19
2019-03-22T15:57:15.391Z,99470.23
2019-03-22T16:02:21.685Z,99463.12
2019-03-22T16:07:27.511Z,99462.34
2019-03-22T16:12:33.733Z,99460.70
2019-03-22T16:17:39.553Z,99461.44
2019-03-22T16:22:45.473Z,99453.21
2019-03-22T16:27:51.288Z,99454.52
2019-03-22T16:32:57.126Z,99451.89
2019-03-22T16:38:03.353Z,99453.39
2019-03-22T16:43:09.326Z,99449.12
2019-03-22T16:48:15.732Z,99455.34
2019-03-22T16:53:22.859Z,99453.14
2019-03-22T16:58:29.462Z,99454.14
2019-03-22T17:03:35.310Z,99450.75
2019-03-22T17:08:41.119Z,99445.55
2019-03-22T17:13:48.322Z,99450.16
2019-03-22T17:18:54.427Z,99454.08
2019-03-22T17:24:00.710Z,99458.09
2019-03-22T17:29:07.610Z,99455.38
2019-03-22T17:34:14.590Z,99457.76
2019-03-22T17:39:21.104Z,99454.64
2019-03-22T17:44:27.274Z,99453.91
2019-03-22T17:49:33.651Z,99457.50
2019-03-22T17:54:40.562Z,99465.77
2019-03-22T17:59:46.985Z,99461.13
2019-03-22T18:04:53.183Z,99461.98
2019-03-22T18:09:59.373Z,99456.27
2019-03-22T18:15:06.169Z,99457.45
2019-03-22T18:20:12.316Z,99465.26
2019-03-22T18:25:18.547Z,99463.09
2019-03-22T18:30:24.522Z,99465.87
2019-03-22T18:35:32.854Z,99470.66
2019-03-22T18:40:40.129Z,99469.63
2019-03-22T18:45:45.946Z,99473.81
2019-03-22T18:50:56.684Z,99474.50
2019-03-22T18:56:00.211Z,99473.66
2019-03-22T19:01:06.368Z,99480.07
2019-03-22T19:06:12.372Z,99481.78
2019-03-22T19:11:19.367Z,99474.95
2019-03-22T19:16:25.603Z,99474.65
2019-03-22T19:21:35.722Z,99474.11
2019-03-22T19:26:42.416Z,99465.59
2019-03-22T19:31:48.600Z,99458.28
2019-03-22T19:36:54.492Z,99461.53
2019-03-22T19:42:01.100Z,99460.98
2019-03-22T19:47:10.383Z,99458.82
2019-03-22T19:52:17.386Z,99455.13
2019-03-22T19:57:23.286Z,99456.12
2019-03-22T20:02:29.198Z,99463.12
2019-03-22T20:07:35.483Z,99459.99
2019-03-22T20:12:41.363Z,99453.45
2019-03-22T20:17:47.528Z,99455.75
2019-03-22T20:22:54.257Z,99451.28
2019-03-22T20:28:00.595Z,99443.62
2019-03-22T20:33:06.977Z,99452.28
2019-03-22T20:38:12.905Z,99447.57
2019-03-22T20:43:21.227Z,99443.45
2019-03-22T20:48:27.326Z,99444.09
2019-03-22T20:53:33.247Z,99445.56
2019-03-22T20:58:40.137Z,99441.91
2019-03-22T21:03:46.634Z,99440.25
2019-03-22T21:08:52.471Z,99443.17
2019-03-22T21:13:58.994Z,99448.27
2019-03-22T21:19:05.173Z,99447.38
2019-03-22T21:24:10.976Z,99444.63
2019-03-22T21:29:16.817Z,99446.51
2019-03-22T21:34:22.618Z,99444.05
2019-03-22T21:39:28.826Z,99443.08
2019-03-22T21:44:34.637Z,99439.09
2019-03-22T21:49:40.443Z,99430.56
2019-03-22T21:54:46.343Z,99429.55
2019-03-22T21:59:52.383Z,99430.88
2019-03-22T22:04:58.317Z,99424.27
2019-03-22T22:10:04.263Z,99423.51
2019-03-22T22:15:12.375Z,99424.97
2019-03-22T22:20:28.432Z,99426.66
2019-03-22T22:25:25.793Z,99423.63
2019-03-22T22:30:31.607Z,99420.48
2019-03-22T22:35:37.530Z,99418.19
2019-03-22T22:40:44.120Z,99415.41
2019-03-22T22:45:50.982Z,99420.45
2019-03-22T22:50:57.023Z,99415.66
2019-03-22T22:56:02.834Z,99416.20
2019-03-22T23:01:08.636Z,99409.83
2019-03-22T23:06:14.647Z,99402.19
2019-03-22T23:11:20.458Z,99400.28
2019-03-22T23:16:26.628Z,99389.06
2019-03-22T23:21:32.846Z,99389.31
2019-03-22T23:26:39.736Z,99387.26
2019-03-22T23:31:45.700Z,99385.69
2019-03-22T23:36:51.643Z,99383.38
2019-03-22T23:41:57.545Z,99380.38
2019-03-22T23:47:03.713Z,99373.33
2019-03-22T23:52:09.525Z,99370.63
2019-03-22T23:57:15.322Z,99378.71
